createdAt,value
2019-06-25T00:01:42.886Z,1.40
2019-06-25T00:04:11.562Z,1.20
2019-06-25T00:06:40.198Z,1.22
2019-06-25T00:09:08.915Z,1.67
2019-06-25T00:11:37.577Z,1.25
2019-06-25T00:14:06.282Z,1.30
2019-06-25T00:16:34.987Z,1.45
2019-06-25T00:19:03.661Z,1.50
2019-06-25T00:21:32.359Z,1.77
2019-06-25T00:24:00.989Z,1.57
2019-06-25T00:26:29.658Z,1.75
2019-06-25T00:28:58.219Z,1.40
2019-06-25T00:31:27.070Z,1.40
2019-06-25T00:33:55.688Z,1.30
2019-06-25T00:36:24.313Z,1.42
2019-06-25T00:38:52.888Z,1.30
2019-06-25T00:41:21.636Z,1.82
2019-06-25T00:43:50.343Z,1.20
2019-06-25T00:46:19.045Z,1.30
2019-06-25T00:48:47.727Z,1.32
2019-06-25T00:51:16.368Z,1.30
2019-06-25T00:53:45.064Z,1.20
2019-06-25T00:56:13.736Z,1.20
2019-06-25T00:58:42.440Z,1.35
2019-06-25T01:01:13.632Z,1.60
2019-06-25T01:03:46.537Z,1.62
2019-06-25T01:06:15.333Z,1.25
2019-06-25T01:08:43.958Z,1.52
2019-06-25T01:11:12.688Z,1.30
2019-06-25T01:13:41.325Z,1.15
2019-06-25T01:16:09.972Z,1.20
2019-06-25T01:18:38.871Z,1.50
2019-06-25T01:21:07.550Z,1.52
2019-06-25T01:23:36.203Z,1.57
2019-06-25T01:26:04.916Z,1.40
2019-06-25T01:28:33.636Z,1.55
2019-06-25T01:31:02.352Z,1.42
2019-06-25T01:33:31.116Z,1.45
2019-06-25T01:35:59.821Z,1.35
2019-06-25T01:38:28.508Z,1.62
2019-06-25T01:40:57.174Z,1.35
2019-06-25T01:43:25.752Z,1.50
2019-06-25T01:45:54.454Z,1.27
2019-06-25T01:48:23.130Z,1.72
2019-06-25T01:50:51.764Z,1.70
2019-06-25T01:53:20.404Z,1.47
2019-06-25T01:55:49.158Z,1.27
2019-06-25T01:58:17.997Z,1.45
2019-06-25T02:00:46.615Z,1.50
2019-06-25T02:03:15.212Z,1.40
2019-06-25T02:05:43.861Z,1.30
2019-06-25T02:08:12.484Z,1.80
2019-06-25T02:10:41.216Z,1.40
2019-06-25T02:13:09.914Z,1.40
2019-06-25T02:15:38.614Z,1.57
2019-06-25T02:18:07.352Z,1.32
2019-06-25T02:20:36.067Z,1.42
2019-06-25T02:23:05.068Z,1.70
2019-06-25T02:25:33.810Z,1.30
2019-06-25T02:28:02.446Z,1.62
2019-06-25T02:30:31.087Z,1.55
2019-06-25T02:32:59.826Z,1.52
2019-06-25T02:35:28.537Z,1.52
2019-06-25T02:37:57.107Z,1.72
2019-06-25T02:40:25.850Z,1.80
2019-06-25T02:42:54.555Z,1.90
2019-06-25T02:45:23.256Z,1.52
2019-06-25T02:47:52.000Z,1.60
2019-06-25T02:50:20.911Z,1.80
2019-06-25T02:52:49.548Z,2.02
2019-06-25T02:55:18.303Z,1.70
2019-06-25T02:57:47.085Z,1.80
2019-06-25T03:00:15.819Z,1.90
2019-06-25T03:02:44.505Z,1.60
2019-06-25T03:05:13.202Z,1.50
2019-06-25T03:07:42.729Z,1.85
2019-06-25T03:10:12.473Z,1.82
2019-06-25T03:12:41.181Z,1.55
2019-06-25T03:15:10.278Z,1.70
2019-06-25T03:17:38.962Z,1.37
2019-06-25T03:20:10.732Z,1.65
2019-06-25T03:22:39.422Z,1.98
2019-06-25T03:25:08.277Z,1.92
2019-06-25T03:27:37.391Z,1.98
2019-06-25T03:30:07.102Z,1.80
2019-06-25T03:32:35.852Z,1.60
2019-06-25T03:35:06.954Z,1.60
2019-06-25T03:37:35.602Z,1.50
2019-06-25T03:40:07.656Z,1.50
2019-06-25T03:42:36.360Z,1.65
2019-06-25T03:45:08.482Z,1.87
2019-06-25T03:47:37.232Z,1.87
2019-06-25T03:50:06.422Z,2.00
2019-06-25T03:52:35.063Z,1.67
2019-06-25T03:55:04.889Z,1.77
2019-06-25T03:57:33.536Z,2.20
2019-06-25T04:00:02.384Z,2.10
2019-06-25T04:02:31.409Z,1.67
2019-06-25T04:04:59.973Z,1.70
2019-06-25T04:07:28.631Z,1.98
2019-06-25T04:09:58.215Z,1.75
2019-06-25T04:12:26.845Z,1.80
2019-06-25T04:14:55.539Z,1.65
2019-06-25T04:17:24.212Z,1.65
2019-06-25T04:19:52.926Z,1.60
2019-06-25T04:22:21.956Z,1.90
2019-06-25T04:24:50.563Z,1.95
2019-06-25T04:27:19.290Z,1.65
2019-06-25T04:29:47.833Z,1.87
2019-06-25T04:32:29.282Z,1.60
2019-06-25T04:34:46.885Z,1.77
2019-06-25T04:37:15.581Z,2.08
2019-06-25T04:39:44.253Z,2.02
2019-06-25T04:42:12.901Z,2.10
2019-06-25T04:44:41.591Z,1.95
2019-06-25T04:47:10.324Z,2.08
2019-06-25T04:49:38.962Z,1.70
2019-06-25T04:52:07.673Z,1.67
2019-06-25T04:54:36.443Z,1.70
2019-06-25T04:57:05.197Z,1.85
2019-06-25T04:59:33.749Z,1.80
2019-06-25T05:02:02.488Z,2.17
2019-06-25T05:04:31.186Z,1.87
2019-06-25T05:06:59.825Z,1.80
2019-06-25T05:09:28.499Z,1.85
2019-06-25T05:11:57.201Z,1.90
2019-06-25T05:14:28.149Z,1.70
2019-06-25T05:16:57.793Z,2.22
2019-06-25T05:19:26.415Z,2.10
2019-06-25T05:21:56.717Z,2.58
2019-06-25T05:24:25.378Z,1.87
2019-06-25T05:26:54.091Z,2.60
2019-06-25T05:29:22.814Z,1.85
2019-06-25T05:31:52.343Z,1.62
2019-06-25T05:34:21.043Z,1.80
2019-06-25T05:36:51.476Z,1.75
2019-06-25T05:39:20.243Z,2.30
2019-06-25T05:41:49.223Z,1.80
2019-06-25T05:44:19.815Z,2.20
2019-06-25T05:46:48.439Z,1.92
2019-06-25T05:49:36.906Z,1.70
2019-06-25T05:52:09.232Z,1.67
2019-06-25T05:54:37.871Z,1.50
2019-06-25T05:57:06.569Z,1.70
2019-06-25T05:59:37.150Z,1.70
2019-06-25T06:02:05.582Z,1.87
2019-06-25T06:04:34.231Z,1.60
2019-06-25T06:07:02.890Z,1.92
2019-06-25T06:09:31.608Z,1.80
2019-06-25T06:12:00.319Z,1.92
2019-06-25T06:14:29.892Z,1.77
2019-06-25T06:16:58.614Z,1.92
2019-06-25T06:19:27.406Z,1.75
2019-06-25T06:21:56.360Z,2.00
2019-06-25T06:24:25.757Z,2.00
2019-06-25T06:26:55.938Z,1.95
2019-06-25T06:29:24.729Z,1.98
2019-06-25T06:31:53.402Z,1.92
2019-06-25T06:34:22.102Z,1.90
2019-06-25T06:36:51.006Z,1.98
2019-06-25T06:39:19.603Z,1.98
2019-06-25T06:41:48.233Z,1.77
2019-06-25T06:44:17.279Z,1.65
2019-06-25T06:46:46.001Z,2.00
2019-06-25T06:49:14.781Z,2.20
2019-06-25T06:51:44.380Z,1.87
2019-06-25T06:54:13.135Z,2.10
2019-06-25T06:56:41.861Z,2.20
2019-06-25T06:59:10.589Z,2.25
2019-06-25T07:01:39.274Z,2.20
2019-06-25T07:04:07.996Z,2.52
2019-06-25T07:06:56.716Z,2.10
2019-06-25T07:09:25.349Z,2.58
2019-06-25T07:11:54.152Z,2.40
2019-06-25T07:14:22.881Z,2.67
2019-06-25T07:16:51.608Z,2.33
2019-06-25T07:19:20.501Z,2.80
2019-06-25T07:21:49.340Z,2.60
2019-06-25T07:24:18.063Z,2.45
2019-06-25T07:26:46.907Z,2.35
2019-06-25T07:29:15.707Z,2.40
2019-06-25T07:31:44.459Z,2.60
2019-06-25T07:34:13.301Z,2.50
2019-06-25T07:36:42.057Z,2.02
2019-06-25T07:39:12.715Z,2.62
2019-06-25T07:41:41.394Z,2.65
2019-06-25T07:44:10.131Z,2.50
2019-06-25T07:46:38.826Z,2.62
2019-06-25T07:49:07.555Z,2.60
2019-06-25T07:51:36.307Z,2.65
2019-06-25T07:54:05.040Z,2.52
2019-06-25T07:56:37.040Z,2.70
2019-06-25T07:59:04.170Z,2.72
2019-06-25T08:01:33.054Z,2.70
2019-06-25T08:04:01.766Z,2.95
2019-06-25T08:06:30.580Z,2.80
2019-06-25T08:08:59.295Z,2.90
2019-06-25T08:11:28.030Z,3.00
2019-06-25T08:13:56.697Z,3.00
2019-06-25T08:16:25.419Z,2.27
2019-06-25T08:18:55.303Z,2.95
2019-06-25T08:21:24.049Z,2.72
2019-06-25T08:23:52.681Z,2.80
2019-06-25T08:26:21.465Z,3.00
2019-06-25T08:28:50.201Z,2.98
2019-06-25T08:31:18.906Z,2.65
2019-06-25T08:33:47.547Z,2.60
2019-06-25T08:36:16.202Z,2.72
2019-06-25T08:38:44.915Z,2.30
2019-06-25T08:41:13.571Z,2.55
2019-06-25T08:43:42.315Z,2.58
2019-06-25T08:46:11.038Z,2.62
2019-06-25T08:48:40.373Z,2.35
2019-06-25T08:51:09.107Z,2.55
2019-06-25T08:53:37.821Z,4.72
2019-06-25T08:56:06.484Z,2.75
2019-06-25T08:58:35.167Z,2.58
2019-06-25T09:01:04.001Z,2.62
2019-06-25T09:03:34.078Z,2.77
2019-06-25T09:06:02.842Z,2.42
2019-06-25T09:08:31.598Z,2.22
2019-06-25T09:11:03.502Z,2.37
2019-06-25T09:13:32.258Z,2.22
2019-06-25T09:16:00.901Z,2.70
2019-06-25T09:18:29.618Z,2.42
2019-06-25T09:20:59.120Z,2.45
2019-06-25T09:23:27.829Z,2.58
2019-06-25T09:25:56.482Z,2.55
2019-06-25T09:28:25.233Z,2.35
2019-06-25T09:30:53.973Z,2.95
2019-06-25T09:33:22.684Z,2.20
2019-06-25T09:35:51.436Z,2.55
2019-06-25T09:38:20.230Z,2.40
2019-06-25T09:40:47.738Z,2.33
2019-06-25T09:43:15.261Z,2.35
2019-06-25T09:45:44.033Z,2.20
2019-06-25T09:48:12.754Z,2.47
2019-06-25T09:50:41.742Z,2.10
2019-06-25T09:53:10.726Z,2.52
2019-06-25T09:55:39.446Z,2.55
2019-06-25T09:58:08.324Z,2.58
2019-06-25T10:00:45.872Z,1.98
2019-06-25T10:03:14.646Z,2.10
2019-06-25T10:05:43.342Z,2.40
2019-06-25T10:08:12.063Z,2.27
2019-06-25T10:10:40.732Z,3.20
2019-06-25T10:13:09.438Z,2.67
2019-06-25T10:15:38.088Z,2.70
2019-06-25T10:18:06.931Z,2.40
2019-06-25T10:20:35.578Z,3.00
2019-06-25T10:23:05.298Z,2.30
2019-06-25T10:25:34.026Z,2.98
2019-06-25T10:28:02.745Z,2.50
2019-06-25T10:30:37.141Z,2.62
2019-06-25T10:33:05.768Z,2.90
2019-06-25T10:35:46.867Z,2.35
2019-06-25T10:38:04.682Z,2.72
2019-06-25T10:40:33.434Z,2.25
2019-06-25T10:43:02.076Z,2.62
2019-06-25T10:45:30.846Z,2.60
2019-06-25T10:47:59.476Z,2.65
2019-06-25T10:50:28.306Z,2.80
2019-06-25T10:52:56.898Z,2.75
2019-06-25T10:55:25.746Z,2.77
2019-06-25T10:57:54.456Z,2.85
2019-06-25T11:00:40.902Z,2.95
2019-06-25T11:03:09.627Z,2.80
2019-06-25T11:05:39.193Z,3.00
2019-06-25T11:08:08.106Z,2.67
2019-06-25T11:10:56.095Z,2.65
2019-06-25T11:13:24.831Z,3.42
2019-06-25T11:15:53.667Z,2.92
2019-06-25T11:18:22.292Z,2.85
2019-06-25T11:20:52.665Z,2.72
2019-06-25T11:23:21.517Z,2.47
2019-06-25T11:26:09.135Z,2.55
2019-06-25T11:28:21.967Z,3.50
2019-06-25T11:30:50.524Z,3.70
2019-06-25T11:33:19.255Z,3.90
2019-06-25T11:35:48.029Z,3.60
2019-06-25T11:38:17.027Z,3.37
2019-06-25T11:40:45.729Z,2.80
2019-06-25T11:43:14.487Z,3.02
2019-06-25T11:45:43.103Z,3.30
2019-06-25T11:48:14.111Z,3.12
2019-06-25T11:50:42.897Z,3.05
2019-06-25T11:53:11.625Z,3.15
2019-06-25T11:55:40.279Z,2.67
2019-06-25T11:58:08.885Z,3.10
2019-06-25T12:00:37.517Z,2.90
2019-06-25T12:03:06.289Z,3.08
2019-06-25T12:05:34.964Z,3.27
2019-06-25T12:08:03.756Z,2.98
2019-06-25T12:10:32.652Z,3.10
2019-06-25T12:13:01.518Z,3.05
2019-06-25T12:15:30.240Z,3.35
2019-06-25T12:17:58.989Z,3.05
2019-06-25T12:20:27.769Z,2.90
2019-06-25T12:22:56.597Z,3.37
2019-06-25T12:25:26.423Z,3.40
2019-06-25T12:27:55.319Z,3.33
2019-06-25T12:30:43.356Z,3.15
2019-06-25T12:33:12.225Z,3.37
2019-06-25T12:35:40.972Z,3.60
2019-06-25T12:38:09.835Z,3.27
2019-06-25T12:40:39.188Z,3.10
2019-06-25T12:43:07.962Z,3.27
2019-06-25T12:45:36.746Z,3.08
2019-06-25T12:48:05.568Z,3.37
2019-06-25T12:50:34.192Z,3.25
2019-06-25T12:53:02.902Z,3.27
2019-06-25T12:55:31.652Z,3.30
2019-06-25T12:58:00.445Z,3.50
2019-06-25T13:00:29.271Z,3.58
2019-06-25T13:02:58.061Z,3.50
2019-06-25T13:05:26.730Z,3.40
2019-06-25T13:07:55.451Z,3.25
2019-06-25T13:10:24.544Z,3.05
2019-06-25T13:12:53.390Z,2.80
2019-06-25T13:15:22.499Z,3.12
2019-06-25T13:17:51.241Z,3.30
2019-06-25T13:20:21.084Z,3.30
2019-06-25T13:22:49.723Z,3.62
2019-06-25T13:25:18.671Z,3.20
2019-06-25T13:27:49.221Z,3.17
2019-06-25T13:30:18.269Z,2.72
2019-06-25T13:32:46.941Z,3.30
2019-06-25T13:35:15.629Z,3.05
2019-06-25T13:37:44.482Z,2.92
2019-06-25T13:40:14.133Z,3.55
2019-06-25T13:42:44.327Z,2.98
2019-06-25T13:45:14.747Z,3.10
2019-06-25T13:47:43.615Z,2.85
2019-06-25T13:50:13.654Z,3.08
2019-06-25T13:52:42.366Z,3.52
2019-06-25T13:55:12.588Z,2.87
2019-06-25T13:57:48.983Z,3.10
2019-06-25T14:00:13.375Z,3.08
2019-06-25T14:02:43.158Z,2.98
2019-06-25T14:05:12.362Z,3.42
2019-06-25T14:07:57.461Z,3.17
2019-06-25T14:10:12.333Z,2.87
2019-06-25T14:12:41.052Z,3.55
2019-06-25T14:15:10.646Z,3.20
2019-06-25T14:17:39.410Z,3.50
2019-06-25T14:20:08.704Z,3.33
2019-06-25T14:22:37.422Z,3.05
2019-06-25T14:25:06.833Z,3.35
2019-06-25T14:27:35.544Z,3.05
2019-06-25T14:30:07.359Z,3.22
2019-06-25T14:32:36.113Z,3.47
2019-06-25T14:35:06.222Z,3.40
2019-06-25T14:37:35.733Z,3.10
2019-06-25T14:40:09.969Z,3.27
2019-06-25T14:42:41.553Z,3.37
2019-06-25T14:45:11.462Z,3.17
2019-06-25T14:47:40.230Z,2.95
2019-06-25T14:50:09.266Z,3.25
2019-06-25T14:52:37.968Z,3.30
2019-06-25T14:55:07.927Z,3.50
2019-06-25T14:57:36.793Z,3.10
2019-06-25T15:00:07.458Z,3.77
2019-06-25T15:02:37.568Z,3.15
2019-06-25T15:05:06.713Z,3.02
2019-06-25T15:07:35.429Z,4.05
2019-06-25T15:10:08.617Z,3.40
2019-06-25T15:12:37.811Z,3.50
2019-06-25T15:15:08.554Z,4.03
2019-06-25T15:17:37.307Z,2.85
2019-06-25T15:20:06.501Z,3.25
2019-06-25T15:22:35.206Z,3.47
2019-06-25T15:25:04.756Z,3.10
2019-06-25T15:27:33.771Z,2.83
2019-06-25T15:30:03.075Z,3.40
2019-06-25T15:32:32.006Z,3.12
2019-06-25T15:35:00.632Z,3.05
2019-06-25T15:37:29.281Z,3.20
2019-06-25T15:39:58.285Z,3.27
2019-06-25T15:42:26.868Z,3.52
2019-06-25T15:44:58.344Z,3.17
2019-06-25T15:47:27.009Z,2.92
2019-06-25T15:49:55.862Z,3.30
2019-06-25T15:52:27.315Z,3.15
2019-06-25T15:54:56.582Z,3.50
2019-06-25T15:57:25.321Z,3.35
2019-06-25T15:59:54.025Z,3.00
2019-06-25T16:02:22.724Z,3.25
2019-06-25T16:04:51.441Z,3.37
2019-06-25T16:07:20.270Z,3.62
2019-06-25T16:09:49.019Z,2.70
2019-06-25T16:12:17.617Z,3.12
2019-06-25T16:14:46.340Z,2.95
2019-06-25T16:17:15.071Z,2.62
2019-06-25T16:19:43.944Z,3.30
2019-06-25T16:22:12.529Z,2.92
2019-06-25T16:24:41.283Z,2.60
2019-06-25T16:27:11.447Z,3.00
2019-06-25T16:29:41.092Z,2.80
2019-06-25T16:32:09.781Z,2.77
2019-06-25T16:34:38.523Z,2.70
2019-06-25T16:37:07.183Z,2.58
2019-06-25T16:39:35.843Z,2.70
2019-06-25T16:42:04.619Z,2.30
2019-06-25T16:44:33.267Z,3.05
2019-06-25T16:47:02.007Z,2.70
2019-06-25T16:49:30.630Z,3.05
2019-06-25T16:51:59.346Z,2.58
2019-06-25T16:54:28.125Z,2.90
2019-06-25T16:56:56.809Z,2.90
2019-06-25T16:59:25.612Z,2.98
2019-06-25T17:01:54.559Z,2.47
2019-06-25T17:04:23.283Z,3.10
2019-06-25T17:06:51.993Z,2.37
2019-06-25T17:09:34.037Z,2.98
2019-06-25T17:11:51.097Z,2.60
2019-06-25T17:14:19.823Z,2.77
2019-06-25T17:16:50.834Z,3.05
2019-06-25T17:19:19.556Z,2.62
2019-06-25T17:21:48.280Z,2.47
2019-06-25T17:24:17.145Z,3.12
2019-06-25T17:26:45.792Z,2.60
2019-06-25T17:29:14.509Z,2.70
2019-06-25T17:31:43.196Z,2.72
2019-06-25T17:34:11.930Z,3.10
2019-06-25T17:36:40.576Z,2.42
2019-06-25T17:39:09.318Z,2.52
2019-06-25T17:41:38.163Z,2.35
2019-06-25T17:44:06.965Z,2.67
2019-06-25T17:46:35.749Z,2.50
2019-06-25T17:49:04.464Z,2.95
2019-06-25T17:51:33.172Z,2.40
2019-06-25T17:54:02.000Z,2.60
2019-06-25T17:56:49.982Z,2.62
2019-06-25T17:59:18.828Z,2.70
2019-06-25T18:01:47.651Z,2.85
2019-06-25T18:04:16.368Z,2.35
2019-06-25T18:06:45.051Z,2.90
2019-06-25T18:09:13.706Z,2.87
2019-06-25T18:11:42.366Z,3.02
2019-06-25T18:14:11.034Z,2.50
2019-06-25T18:16:39.908Z,2.60
2019-06-25T18:19:08.715Z,2.70
2019-06-25T18:21:37.684Z,2.62
2019-06-25T18:24:06.376Z,2.70
2019-06-25T18:26:35.092Z,2.50
2019-06-25T18:29:03.974Z,2.60
2019-06-25T18:31:32.556Z,2.62
2019-06-25T18:34:01.184Z,2.90
2019-06-25T18:36:29.958Z,3.08
2019-06-25T18:38:58.890Z,2.95
2019-06-25T18:41:27.575Z,2.37
2019-06-25T18:43:56.368Z,2.90
2019-06-25T18:46:25.148Z,2.87
2019-06-25T18:48:53.853Z,2.90
2019-06-25T18:51:22.556Z,2.67
2019-06-25T18:53:51.184Z,3.10
2019-06-25T18:56:19.897Z,2.70
2019-06-25T18:58:48.639Z,3.17
2019-06-25T19:01:17.287Z,2.83
2019-06-25T19:03:46.000Z,2.60
2019-06-25T19:06:14.751Z,2.83
2019-06-25T19:08:43.395Z,2.67
2019-06-25T19:11:12.105Z,3.20
2019-06-25T19:13:40.855Z,2.87
2019-06-25T19:16:09.519Z,2.80
2019-06-25T19:18:38.282Z,2.77
2019-06-25T19:21:07.057Z,3.12
2019-06-25T19:23:35.777Z,3.20
2019-06-25T19:26:07.325Z,3.17
2019-06-25T19:28:34.892Z,3.05
2019-06-25T19:31:03.817Z,3.00
2019-06-25T19:33:32.466Z,3.12
2019-06-25T19:36:05.546Z,3.27
2019-06-25T19:38:31.479Z,3.08
2019-06-25T19:41:00.475Z,2.90
2019-06-25T19:43:29.228Z,3.40
2019-06-25T19:45:57.949Z,3.10
2019-06-25T19:48:26.742Z,2.98
2019-06-25T19:50:55.599Z,3.33
2019-06-25T19:53:24.321Z,3.27
2019-06-25T19:55:52.968Z,3.20
2019-06-25T19:58:21.726Z,3.25
2019-06-25T20:00:50.437Z,3.08
2019-06-25T20:03:19.153Z,3.60
2019-06-25T20:05:49.339Z,3.30
2019-06-25T20:08:18.165Z,3.15
2019-06-25T20:10:47.382Z,3.10
2019-06-25T20:13:16.257Z,3.35
2019-06-25T20:15:44.942Z,3.65
2019-06-25T20:18:13.645Z,3.42
2019-06-25T20:20:42.302Z,3.77
2019-06-25T20:23:11.013Z,3.52
2019-06-25T20:25:39.653Z,3.58
2019-06-25T20:28:08.396Z,3.50
2019-06-25T20:30:37.110Z,3.52
2019-06-25T20:33:05.869Z,3.50
2019-06-25T20:35:34.619Z,3.65
2019-06-25T20:38:04.756Z,3.67
2019-06-25T20:40:33.426Z,3.25
2019-06-25T20:43:14.369Z,3.05
2019-06-25T20:45:43.387Z,3.65
2019-06-25T20:48:12.115Z,3.55
2019-06-25T20:50:41.139Z,3.40
2019-06-25T20:53:10.254Z,3.70
2019-06-25T20:55:38.919Z,3.72
2019-06-25T20:58:08.131Z,3.37
2019-06-25T21:00:36.853Z,3.50
2019-06-25T21:03:05.770Z,3.52
2019-06-25T21:05:34.360Z,3.70
2019-06-25T21:08:03.305Z,3.62
2019-06-25T21:10:32.096Z,3.70
2019-06-25T21:13:00.774Z,3.52
2019-06-25T21:15:29.382Z,3.30
2019-06-25T21:18:17.382Z,3.72
2019-06-25T21:20:46.050Z,3.37
2019-06-25T21:23:14.756Z,3.72
2019-06-25T21:25:48.089Z,3.72
2019-06-25T21:28:16.813Z,3.67
2019-06-25T21:30:45.589Z,3.87
2019-06-25T21:33:14.288Z,3.67
2019-06-25T21:35:44.833Z,3.20
2019-06-25T21:38:13.470Z,3.50
2019-06-25T21:40:42.156Z,3.90
2019-06-25T21:43:10.809Z,3.98
2019-06-25T21:45:39.517Z,4.10
2019-06-25T21:48:08.279Z,4.20
2019-06-25T21:50:36.897Z,3.98
2019-06-25T21:53:05.645Z,4.08
2019-06-25T21:55:34.401Z,3.80
2019-06-25T21:58:03.056Z,4.10
2019-06-25T22:00:33.646Z,4.10
2019-06-25T22:03:02.657Z,4.40
2019-06-25T22:05:31.477Z,3.95
2019-06-25T22:08:00.083Z,4.40
2019-06-25T22:10:28.857Z,4.45
2019-06-25T22:12:57.434Z,4.10
2019-06-25T22:15:26.151Z,4.40
2019-06-25T22:17:55.077Z,4.20
2019-06-25T22:20:24.272Z,4.20
2019-06-25T22:22:52.991Z,4.00
2019-06-25T22:25:21.755Z,4.72
2019-06-25T22:27:50.533Z,4.17
2019-06-25T22:30:19.618Z,4.28
2019-06-25T22:32:50.565Z,4.47
2019-06-25T22:35:19.549Z,4.30
2019-06-25T22:37:48.207Z,4.28
2019-06-25T22:40:17.225Z,4.35
2019-06-25T22:42:45.935Z,4.20
2019-06-25T22:45:16.539Z,4.50
2019-06-25T22:47:45.729Z,4.33
2019-06-25T22:50:16.348Z,4.42
2019-06-25T22:52:45.224Z,4.30
2019-06-25T22:55:14.060Z,4.83
2019-06-25T22:57:42.773Z,4.62
2019-06-25T23:00:12.283Z,4.50
2019-06-25T23:02:41.011Z,4.45
2019-06-25T23:05:09.923Z,4.55
2019-06-25T23:07:38.641Z,4.45
2019-06-25T23:10:08.274Z,4.40
2019-06-25T23:12:49.821Z,4.78
2019-06-25T23:15:07.879Z,4.30
2019-06-25T23:17:36.553Z,4.50
2019-06-25T23:20:06.085Z,4.60
2019-06-25T23:22:34.719Z,4.75
2019-06-25T23:25:03.395Z,4.67
2019-06-25T23:27:32.086Z,4.30
2019-06-25T23:30:00.671Z,4.50
2019-06-25T23:32:29.559Z,4.53
2019-06-25T23:34:58.279Z,4.50
2019-06-25T23:37:29.274Z,4.10
2019-06-25T23:39:57.970Z,4.83
2019-06-25T23:42:26.595Z,4.28
2019-06-25T23:44:55.544Z,4.90
2019-06-25T23:47:24.217Z,4.50
2019-06-25T23:49:52.918Z,4.55
2019-06-25T23:52:21.569Z,4.90
2019-06-25T23:54:50.232Z,4.92
2019-06-25T23:57:18.874Z,4.58
2019-06-25T23:59:47.514Z,4.65
